Time,TemperatureF,DewpointF,PressureIn,WindDirection,WindDirectionDegrees,WindSpeedMPH,WindSpeedGustMPH,Humidity,HourlyPrecipIn,Conditions,Clouds,dailyrainin,SolarRadiationWatts/m^2,SoftwareType,DateUTC
2013-03-10 00:01:00,64.0,63.0,-100.00,West,275,7.0,28.0,97,0.18,,,0.18,0.000000,,2013-03-10 06:01:00,
2013-03-10 00:11:00,64.0,63.0,-100.00,West,275,7.0,28.0,97,0.18,,,0.18,0.000000,,2013-03-10 06:11:00,
2013-03-10 00:22:00,64.0,63.0,-100.00,West,275,7.0,28.0,97,0.18,,,0.18,0.000000,,2013-03-10 06:22:00,
2013-03-10 00:32:00,64.0,63.0,-100.00,West,275,7.0,28.0,97,0.18,,,0.18,0.000000,,2013-03-10 06:32:00,
2013-03-10 00:52:00,59.0,58.0,-100.00,North,350,12.0,18.0,98,0.48,,,0.66,0.000000,,2013-03-10 06:52:00,
2013-03-10 01:02:00,59.0,58.0,-100.00,North,350,12.0,18.0,98,0.48,,,0.66,0.000000,,2013-03-10 07:02:00,
2013-03-10 01:11:00,59.0,58.0,-100.00,North,350,12.0,18.0,98,0.48,,,0.66,0.000000,,2013-03-10 07:11:00,
2013-03-10 01:21:00,59.0,58.0,-100.00,North,350,12.0,18.0,98,0.48,,,0.66,0.000000,,2013-03-10 07:21:00,
2013-03-10 01:31:00,59.0,58.0,-100.00,North,350,12.0,18.0,98,0.48,,,0.66,0.000000,,2013-03-10 07:31:00,
2013-03-10 01:52:00,58.0,56.0,-100.00,NNE,19,10.0,16.0,94,0.02,,,0.68,0.000000,,2013-03-10 07:52:00,
2013-03-10 03:01:00,58.0,56.0,-100.00,NNE,19,10.0,16.0,94,0.02,,,0.68,0.000000,,2013-03-10 08:01:00,
2013-03-10 03:11:00,58.0,56.0,-100.00,NNE,19,10.0,16.0,94,0.02,,,0.68,0.000000,,2013-03-10 08:11:00,
2013-03-10 03:21:00,58.0,56.0,-100.00,NNE,19,10.0,16.0,94,0.02,,,0.68,0.000000,,2013-03-10 08:21:00,
2013-03-10 03:31:00,58.0,56.0,-100.00,NNE,19,10.0,16.0,94,0.02,,,0.68,0.000000,,2013-03-10 08:31:00,
2013-03-10 04:01:00,59.0,54.0,-100.00,NNW,334,16.0,32.0,84,0.07,,,0.75,0.000000,,2013-03-10 09:01:00,
2013-03-10 04:11:00,59.0,54.0,-100.00,NNW,334,16.0,32.0,84,0.07,,,0.75,0.000000,,2013-03-10 09:11:00,
2013-03-10 04:21:00,59.0,54.0,-100.00,NNW,334,16.0,32.0,84,0.07,,,0.75,0.000000,,2013-03-10 09:21:00,
2013-03-10 04:31:00,59.0,54.0,-100.00,NNW,334,16.0,32.0,84,0.07,,,0.75,0.000000,,2013-03-10 09:31:00,
2013-03-10 05:01:00,57.0,46.0,-100.00,NNW,335,15.0,24.0,66,0.00,,,0.75,0.000000,,2013-03-10 10:01:00,
2013-03-10 05:11:00,57.0,46.0,-100.00,NNW,335,15.0,24.0,66,0.00,,,0.75,0.000000,,2013-03-10 10:11:00,
2013-03-10 05:21:00,57.0,46.0,-100.00,NNW,335,15.0,24.0,66,0.00,,,0.75,0.000000,,2013-03-10 10:21:00,
2013-03-10 05:32:00,57.0,46.0,-100.00,NNW,335,15.0,24.0,66,0.00,,,0.75,0.000000,,2013-03-10 10:32:00,
2013-03-10 06:01:00,55.0,42.0,-100.00,NNW,335,14.0,21.0,61,0.00,,,0.75,0.000000,,2013-03-10 11:01:00,
2013-03-10 06:12:00,55.0,42.0,-100.00,NNW,335,14.0,21.0,61,0.00,,,0.75,0.000000,,2013-03-10 11:12:00,
2013-03-10 06:21:00,55.0,42.0,-100.00,NNW,335,14.0,21.0,61,0.00,,,0.75,0.000000,,2013-03-10 11:21:00,
2013-03-10 06:32:00,55.0,42.0,-100.00,NNW,335,14.0,21.0,61,0.00,,,0.75,0.000000,,2013-03-10 11:32:00,
2013-03-10 09:01:00,55.0,39.0,-100.00,NW,310,9.0,13.0,54,-99.99,,,0.75,12.000000,,2013-03-10 14:01:00,
2013-03-10 09:11:00,55.0,39.0,-100.00,NW,310,9.0,13.0,54,-99.99,,,0.75,12.000000,,2013-03-10 14:11:00,
2013-03-10 09:21:00,55.0,39.0,-100.00,NW,310,9.0,13.0,54,-99.99,,,0.75,12.000000,,2013-03-10 14:21:00,
2013-03-10 09:32:00,55.0,39.0,-100.00,NW,310,9.0,13.0,54,-99.99,,,0.75,12.000000,,2013-03-10 14:32:00,
2013-03-10 10:01:00,52.0,35.0,-100.00,NW,311,13.0,28.0,53,0.00,,,0.75,73.000000,,2013-03-10 15:01:00,
2013-03-10 10:11:00,52.0,35.0,-100.00,NW,311,13.0,28.0,53,0.00,,,0.75,73.000000,,2013-03-10 15:11:00,
2013-03-10 10:21:00,52.0,35.0,-100.00,NW,311,13.0,28.0,53,0.00,,,0.75,73.000000,,2013-03-10 15:21:00,
2013-03-10 10:32:00,52.0,35.0,-100.00,NW,311,13.0,28.0,53,0.00,,,0.75,73.000000,,2013-03-10 15:32:00,
2013-03-10 11:01:00,53.0,33.0,-100.00,NNW,329,19.0,29.0,46,0.00,,,0.75,405.000000,,2013-03-10 16:01:00,
2013-03-10 11:12:00,53.0,33.0,-100.00,NNW,329,19.0,29.0,46,0.00,,,0.75,405.000000,,2013-03-10 16:12:00,
2013-03-10 11:21:00,53.0,33.0,-100.00,NNW,329,19.0,29.0,46,0.00,,,0.75,405.000000,,2013-03-10 16:21:00,
2013-03-10 11:32:00,53.0,33.0,-100.00,NNW,329,19.0,29.0,46,0.00,,,0.75,405.000000,,2013-03-10 16:32:00,
2013-03-10 13:01:00,56.0,31.0,-100.00,NNW,333,18.0,31.0,38,-99.99,,,0.75,751.000000,,2013-03-10 18:01:00,
2013-03-10 13:11:00,56.0,31.0,-100.00,NNW,333,18.0,31.0,38,-99.99,,,0.75,751.000000,,2013-03-10 18:11:00,
2013-03-10 13:21:00,56.0,31.0,-100.00,NNW,333,18.0,31.0,38,-99.99,,,0.75,751.000000,,2013-03-10 18:21:00,
2013-03-10 13:32:00,56.0,31.0,-100.00,NNW,333,18.0,31.0,38,-99.99,,,0.75,751.000000,,2013-03-10 18:32:00,
2013-03-10 14:01:00,58.0,33.0,-100.00,NW,319,15.0,25.0,39,0.00,,,0.75,821.000000,,2013-03-10 19:01:00,
2013-03-10 14:11:00,58.0,33.0,-100.00,NW,319,15.0,25.0,39,0.00,,,0.75,821.000000,,2013-03-10 19:11:00,
2013-03-10 14:21:00,58.0,33.0,-100.00,NW,319,15.0,25.0,39,0.00,,,0.75,821.000000,,2013-03-10 19:21:00,
2013-03-10 14:32:00,58.0,33.0,-100.00,NW,319,15.0,25.0,39,0.00,,,0.75,821.000000,,2013-03-10 19:32:00,
2013-03-10 15:02:00,58.0,33.0,-100.00,NNW,333,14.0,25.0,39,0.00,,,0.75,826.000000,,2013-03-10 20:02:00,
2013-03-10 15:12:00,58.0,33.0,-100.00,NNW,333,14.0,25.0,39,0.00,,,0.75,826.000000,,2013-03-10 20:12:00,
2013-03-10 15:22:00,58.0,33.0,-100.00,NNW,333,14.0,25.0,39,0.00,,,0.75,826.000000,,2013-03-10 20:22:00,
2013-03-10 15:32:00,58.0,33.0,-100.00,NNW,333,14.0,25.0,39,0.00,,,0.75,826.000000,,2013-03-10 20:32:00,
2013-03-10 15:53:00,60.0,33.0,-100.00,NW,318,14.0,26.0,36,0.00,,,0.75,768.000000,,2013-03-10 20:53:00,
2013-03-10 16:02:00,60.0,33.0,-100.00,NW,318,14.0,26.0,36,0.00,,,0.75,768.000000,,2013-03-10 21:02:00,
2013-03-10 16:12:00,60.0,33.0,-100.00,NW,318,14.0,26.0,36,0.00,,,0.75,768.000000,,2013-03-10 21:12:00,
2013-03-10 16:23:00,60.0,33.0,-100.00,NW,318,14.0,26.0,36,0.00,,,0.75,768.000000,,2013-03-10 21:23:00,
2013-03-10 16:32:00,60.0,33.0,-100.00,NW,318,14.0,26.0,36,0.00,,,0.75,768.000000,,2013-03-10 21:32:00,
2013-03-10 16:53:00,59.0,31.0,-100.00,NNW,342,15.0,27.0,35,0.00,,,0.75,646.000000,,2013-03-10 21:53:00,
2013-03-10 17:02:00,59.0,31.0,-100.00,NNW,342,15.0,27.0,35,0.00,,,0.75,646.000000,,2013-03-10 22:02:00,
2013-03-10 17:12:00,59.0,31.0,-100.00,NNW,342,15.0,27.0,35,0.00,,,0.75,646.000000,,2013-03-10 22:12:00,
2013-03-10 17:22:00,59.0,31.0,-100.00,NNW,342,15.0,27.0,35,0.00,,,0.75,646.000000,,2013-03-10 22:22:00,
2013-03-10 17:32:00,59.0,31.0,-100.00,NNW,342,15.0,27.0,35,0.00,,,0.75,646.000000,,2013-03-10 22:32:00,
2013-03-10 17:53:00,59.0,31.0,-100.00,NNW,331,14.0,26.0,34,0.00,,,0.75,477.000000,,2013-03-10 22:53:00,
2013-03-10 18:03:00,59.0,31.0,-100.00,NNW,331,14.0,26.0,34,0.00,,,0.75,477.000000,,2013-03-10 23:03:00,
2013-03-10 18:12:00,59.0,31.0,-100.00,NNW,331,14.0,26.0,34,0.00,,,0.75,477.000000,,2013-03-10 23:12:00,
2013-03-10 18:23:00,59.0,31.0,-100.00,NNW,331,14.0,26.0,34,0.00,,,0.75,477.000000,,2013-03-10 23:23:00,
2013-03-10 18:32:00,59.0,31.0,-100.00,NNW,331,14.0,26.0,34,0.00,,,0.75,477.000000,,2013-03-10 23:32:00,
2013-03-10 19:02:00,58.0,29.0,-100.00,NNW,328,13.0,22.0,33,0.00,,,0.75,279.000000,,2013-03-11 00:02:00,
2013-03-10 19:12:00,58.0,29.0,-100.00,NNW,328,13.0,22.0,33,0.00,,,0.75,279.000000,,2013-03-11 00:12:00,
2013-03-10 19:23:00,58.0,29.0,-100.00,NNW,328,13.0,22.0,33,0.00,,,0.75,279.000000,,2013-03-11 00:23:00,
2013-03-10 19:33:00,58.0,29.0,-100.00,NNW,328,13.0,22.0,33,0.00,,,0.75,279.000000,,2013-03-11 00:33:00,
2013-03-10 20:03:00,55.0,29.0,-100.00,NNW,337,9.0,18.0,37,0.00,,,0.75,81.000000,,2013-03-11 01:03:00,
2013-03-10 20:13:00,55.0,29.0,-100.00,NNW,337,9.0,18.0,37,0.00,,,0.75,81.000000,,2013-03-11 01:13:00,
2013-03-10 20:23:00,55.0,29.0,-100.00,NNW,337,9.0,18.0,37,0.00,,,0.75,81.000000,,2013-03-11 01:23:00,
2013-03-10 20:32:00,55.0,29.0,-100.00,NNW,337,9.0,18.0,37,0.00,,,0.75,81.000000,,2013-03-11 01:32:00,
2013-03-10 21:02:00,51.0,29.0,-100.00,NNW,343,9.0,18.0,42,0.00,,,0.75,1.000000,,2013-03-11 02:02:00,
2013-03-10 21:12:00,51.0,29.0,-100.00,NNW,343,9.0,18.0,42,0.00,,,0.75,1.000000,,2013-03-11 02:12:00,
2013-03-10 21:22:00,51.0,29.0,-100.00,NNW,343,9.0,18.0,42,0.00,,,0.75,1.000000,,2013-03-11 02:22:00,
2013-03-10 21:32:00,51.0,29.0,-100.00,NNW,343,9.0,18.0,42,0.00,,,0.75,1.000000,,2013-03-11 02:32:00,
2013-03-10 22:02:00,48.0,30.0,-100.00,North,9,9.0,14.0,49,0.00,,,0.75,0.000000,,2013-03-11 03:02:00,
2013-03-10 22:12:00,48.0,30.0,-100.00,North,9,9.0,14.0,49,0.00,,,0.75,0.000000,,2013-03-11 03:12:00,
2013-03-10 22:22:00,48.0,30.0,-100.00,North,9,9.0,14.0,49,0.00,,,0.75,0.000000,,2013-03-11 03:22:00,
2013-03-10 22:32:00,48.0,30.0,-100.00,North,9,9.0,14.0,49,0.00,,,0.75,0.000000,,2013-03-11 03:32:00,
2013-03-10 23:02:00,46.0,29.0,-100.00,North,1,8.0,15.0,52,0.00,,,0.75,0.000000,,2013-03-11 04:02:00,
2013-03-10 23:12:00,46.0,29.0,-100.00,North,1,8.0,15.0,52,0.00,,,0.75,0.000000,,2013-03-11 04:12:00,
2013-03-10 23:22:00,46.0,29.0,-100.00,North,1,8.0,15.0,52,0.00,,,0.75,0.000000,,2013-03-11 04:22:00,
2013-03-10 23:32:00,46.0,29.0,-100.00,North,1,8.0,15.0,52,0.00,,,0.75,0.000000,,2013-03-11 04:32:00,